Crest Hill, Illinois
Current Conditions -  °F | °C
As of 2:55 AM on Saturday 22 Nov 2014 (Local Time) from KJOT Reporting Station
Unknown Precip Unknown Precip  
Wind Chill: 24°   Ceiling: 600
Heat Index: 33°   Visibility: 2mi
Dew Point: 32°   Wind: 12mph
Humidity: 96%   Direction: 190°S
Pressure: 30.12"   Gusts: NA
Location:  41.55°N, 88.12°W
Report Text: KJOT 220855Z AUTO 19010KT 2SM UP OVC006 01/00 A3012 RMK AO2 T00051001
Loading
Personal Weather Stations






























Interactive Weather Map New forecast layout! Learn more

10-Day Weather Forecast

Advertisements
Track Severe Weather on mobile